createdAt,value
2019-02-24T00:01:26.618Z,99.90
2019-02-24T00:03:55.211Z,99.90
2019-02-24T00:06:22.874Z,99.90
2019-02-24T00:08:50.554Z,99.90
2019-02-24T00:11:18.199Z,99.90
2019-02-24T00:13:45.835Z,99.90
2019-02-24T00:16:13.485Z,99.90
2019-02-24T00:18:41.119Z,99.90
2019-02-24T00:21:08.838Z,99.90
2019-02-24T00:23:36.465Z,99.90
2019-02-24T00:26:04.755Z,99.90
2019-02-24T00:28:32.430Z,99.90
2019-02-24T00:31:00.077Z,99.90
2019-02-24T00:33:27.714Z,99.90
2019-02-24T00:35:55.433Z,99.90
2019-02-24T00:38:23.070Z,99.90
2019-02-24T00:40:50.719Z,99.90
2019-02-24T00:43:19.331Z,99.90
2019-02-24T00:45:46.980Z,99.90
2019-02-24T00:48:14.607Z,99.90
2019-02-24T00:50:42.245Z,99.90
2019-02-24T00:53:09.951Z,99.90
2019-02-24T00:55:37.582Z,99.90
2019-02-24T00:58:05.226Z,99.90
2019-02-24T01:00:32.859Z,99.90
2019-02-24T01:03:00.504Z,99.90
2019-02-24T01:05:28.135Z,99.90
2019-02-24T01:07:55.777Z,99.90
2019-02-24T01:10:23.507Z,99.90
2019-02-24T01:12:51.151Z,99.90
2019-02-24T01:15:18.786Z,99.90
2019-02-24T01:17:46.430Z,99.90
2019-02-24T01:20:14.067Z,99.90
2019-02-24T01:22:41.710Z,99.90
2019-02-24T01:25:09.410Z,99.90
2019-02-24T01:27:37.070Z,99.90
2019-02-24T01:30:05.567Z,99.90
2019-02-24T01:32:33.210Z,99.90
2019-02-24T01:35:00.855Z,99.90
2019-02-24T01:37:28.499Z,99.90
2019-02-24T01:39:56.143Z,99.90
2019-02-24T01:42:23.786Z,99.90
2019-02-24T01:44:51.426Z,99.90
2019-02-24T01:47:19.071Z,99.90
2019-02-24T01:49:46.703Z,99.90
2019-02-24T01:52:14.351Z,99.90
2019-02-24T01:54:41.992Z,99.90
2019-02-24T01:57:09.659Z,99.90
2019-02-24T01:59:37.287Z,99.90
2019-02-24T02:02:04.923Z,99.90
2019-02-24T02:04:32.576Z,99.90
2019-02-24T02:07:00.202Z,99.90
2019-02-24T02:09:27.846Z,99.90
2019-02-24T02:11:55.483Z,99.90
2019-02-24T02:14:23.131Z,99.90
2019-02-24T02:16:50.763Z,99.90
2019-02-24T02:19:18.415Z,99.90
2019-02-24T02:21:46.042Z,99.90
2019-02-24T02:24:13.696Z,99.90
2019-02-24T02:26:41.334Z,99.90
2019-02-24T02:29:08.980Z,99.90
2019-02-24T02:31:36.622Z,99.90
2019-02-24T02:34:04.276Z,99.90
2019-02-24T02:36:31.899Z,99.90
2019-02-24T02:38:59.553Z,99.90
2019-02-24T02:41:27.185Z,99.90
2019-02-24T02:43:54.823Z,99.90
2019-02-24T02:46:22.464Z,99.90
2019-02-24T02:48:50.106Z,99.90
2019-02-24T02:51:17.745Z,99.90
2019-02-24T02:53:46.673Z,99.90
2019-02-24T02:56:14.313Z,99.90
2019-02-24T02:58:41.958Z,99.90
2019-02-24T03:01:09.657Z,99.90
2019-02-24T03:03:37.291Z,99.90
2019-02-24T03:06:18.297Z,99.90
2019-02-24T03:08:47.524Z,99.90
2019-02-24T03:11:15.731Z,99.90
2019-02-24T03:13:43.539Z,99.90
2019-02-24T03:16:11.179Z,99.90
2019-02-24T03:18:38.823Z,99.90
2019-02-24T03:21:06.467Z,99.90
2019-02-24T03:23:34.108Z,99.90
2019-02-24T03:26:01.753Z,99.90
2019-02-24T03:28:29.386Z,99.90
2019-02-24T03:30:57.035Z,99.90
2019-02-24T03:33:24.673Z,99.90
2019-02-24T03:38:19.682Z,99.90
2019-02-24T03:40:47.331Z,99.90
2019-02-24T03:43:15.040Z,99.90
2019-02-24T03:45:42.687Z,99.90
2019-02-24T03:48:10.322Z,99.90
2019-02-24T03:50:37.983Z,99.90
2019-02-24T03:53:18.803Z,99.90
2019-02-24T03:55:46.460Z,99.90
2019-02-24T03:58:14.107Z,99.90
2019-02-24T04:00:41.750Z,99.90
2019-02-24T04:03:09.394Z,99.90
2019-02-24T04:05:37.029Z,99.90
2019-02-24T04:08:04.667Z,99.90
2019-02-24T04:10:32.319Z,99.90
2019-02-24T04:12:59.950Z,99.90
2019-02-24T04:15:27.607Z,99.90
2019-02-24T04:17:55.241Z,99.90
2019-02-24T04:20:22.878Z,99.90
2019-02-24T04:22:50.525Z,99.90
2019-02-24T04:25:18.151Z,99.90
2019-02-24T04:27:45.800Z,99.90
2019-02-24T04:30:13.428Z,99.90
2019-02-24T04:32:41.076Z,99.90
2019-02-24T04:35:08.715Z,99.90
2019-02-24T04:37:36.367Z,99.90
2019-02-24T04:40:04.566Z,99.90
2019-02-24T04:42:32.210Z,99.90
2019-02-24T04:44:59.847Z,99.90
2019-02-24T04:47:27.503Z,99.90
2019-02-24T04:52:22.507Z,99.90
2019-02-24T04:54:50.134Z,99.90
2019-02-24T04:57:17.773Z,99.90
2019-02-24T04:59:45.411Z,99.90
2019-02-24T05:02:13.067Z,99.90
2019-02-24T05:04:40.701Z,99.90
2019-02-24T05:07:08.427Z,99.90
2019-02-24T05:09:36.061Z,99.90
2019-02-24T05:12:03.710Z,99.90
2019-02-24T05:14:31.351Z,99.90
2019-02-24T05:16:58.999Z,99.90
2019-02-24T05:19:26.638Z,99.90
2019-02-24T05:21:54.298Z,99.90
2019-02-24T05:24:21.946Z,99.90
2019-02-24T05:26:49.687Z,99.90
2019-02-24T05:29:17.340Z,99.90
2019-02-24T05:31:44.976Z,99.90
2019-02-24T05:34:12.626Z,99.90
2019-02-24T05:36:40.263Z,99.90
2019-02-24T05:39:07.910Z,99.90
2019-02-24T05:41:35.557Z,99.90
2019-02-24T05:44:03.203Z,99.90
2019-02-24T05:46:30.865Z,99.90
2019-02-24T05:48:58.494Z,99.90
2019-02-24T05:51:26.137Z,99.90
2019-02-24T05:53:53.782Z,99.90
2019-02-24T05:56:21.411Z,99.90
2019-02-24T05:58:49.069Z,99.90
2019-02-24T06:01:16.709Z,99.90
2019-02-24T06:03:44.350Z,99.90
2019-02-24T06:06:11.978Z,99.90
2019-02-24T06:08:39.627Z,99.90
2019-02-24T06:11:07.275Z,99.90
2019-02-24T06:13:34.925Z,99.90
2019-02-24T06:16:02.555Z,99.90
2019-02-24T06:18:30.225Z,99.90
2019-02-24T06:20:57.846Z,99.90
2019-02-24T06:23:25.506Z,99.90
2019-02-24T06:25:53.140Z,99.90
2019-02-24T06:28:20.780Z,99.90
2019-02-24T06:30:48.409Z,99.90
2019-02-24T06:33:16.051Z,99.90
2019-02-24T06:35:43.702Z,99.90
2019-02-24T06:38:11.344Z,99.90
2019-02-24T06:40:39.018Z,99.90
2019-02-24T06:43:06.647Z,99.90
2019-02-24T06:45:34.299Z,99.90
2019-02-24T06:48:01.938Z,99.90
2019-02-24T06:50:35.300Z,99.90
2019-02-24T06:53:00.579Z,99.90
2019-02-24T06:55:28.229Z,99.90
2019-02-24T06:57:55.858Z,99.90
2019-02-24T07:00:23.523Z,99.90
2019-02-24T07:02:51.179Z,99.90
2019-02-24T07:05:18.832Z,99.90
2019-02-24T07:07:46.477Z,99.90
2019-02-24T07:10:14.195Z,99.90
2019-02-24T07:12:41.840Z,99.90
2019-02-24T07:15:09.492Z,99.90
2019-02-24T07:17:37.118Z,99.90
2019-02-24T07:20:06.042Z,99.90
2019-02-24T07:22:39.713Z,99.90
2019-02-24T07:25:07.350Z,99.90
2019-02-24T07:27:34.999Z,99.90
2019-02-24T07:30:02.649Z,99.90
2019-02-24T07:32:31.264Z,99.90
2019-02-24T07:34:58.897Z,99.90
2019-02-24T07:37:26.539Z,99.90
2019-02-24T07:39:54.186Z,99.90
2019-02-24T07:42:35.127Z,99.90
2019-02-24T07:45:02.777Z,99.90
2019-02-24T07:47:30.435Z,99.90
2019-02-24T07:49:58.067Z,99.90
2019-02-24T07:52:31.504Z,99.90
2019-02-24T07:54:59.138Z,99.90
2019-02-24T07:57:26.790Z,99.90
2019-02-24T07:59:54.443Z,99.90
2019-02-24T08:02:22.090Z,99.90
2019-02-24T08:04:49.731Z,99.90
2019-02-24T08:07:17.386Z,99.90
2019-02-24T08:09:45.036Z,99.90
2019-02-24T08:12:15.871Z,99.90
2019-02-24T08:14:43.519Z,99.90
2019-02-24T08:17:11.239Z,99.90
2019-02-24T08:19:38.871Z,99.90
2019-02-24T08:22:06.525Z,99.90
2019-02-24T08:24:34.154Z,99.90
2019-02-24T08:27:01.800Z,99.90
2019-02-24T08:29:30.200Z,99.90
2019-02-24T08:31:57.844Z,99.90
2019-02-24T08:34:26.453Z,99.90
2019-02-24T08:36:54.155Z,99.90
2019-02-24T08:39:21.814Z,99.90
2019-02-24T08:41:49.457Z,99.90
2019-02-24T08:44:19.058Z,99.90
2019-02-24T08:46:46.706Z,99.90
2019-02-24T08:49:14.339Z,99.90
2019-02-24T08:51:41.966Z,99.90
2019-02-24T08:54:10.511Z,99.90
2019-02-24T08:56:38.172Z,99.90
2019-02-24T08:59:05.823Z,99.90
2019-02-24T09:01:33.451Z,99.90
2019-02-24T09:04:01.086Z,99.90
2019-02-24T09:06:28.730Z,99.90
2019-02-24T09:08:56.380Z,99.90
2019-02-24T09:11:24.010Z,99.90
2019-02-24T09:13:51.663Z,99.90
2019-02-24T09:16:19.295Z,99.90
2019-02-24T09:18:46.939Z,99.90
2019-02-24T09:21:14.579Z,99.90
2019-02-24T09:23:42.222Z,99.90
2019-02-24T09:26:09.846Z,99.90
2019-02-24T09:28:37.486Z,99.90
2019-02-24T09:31:05.123Z,99.90
2019-02-24T09:33:32.778Z,99.90
2019-02-24T09:36:00.408Z,99.90
2019-02-24T09:38:28.055Z,99.90
2019-02-24T09:40:55.692Z,99.90
2019-02-24T09:43:23.336Z,99.90
2019-02-24T09:45:50.971Z,99.90
2019-02-24T09:48:18.622Z,96.10
2019-02-24T09:50:46.254Z,94.60
2019-02-24T09:53:13.907Z,95.20
2019-02-24T09:55:41.537Z,91.40
2019-02-24T10:00:36.543Z,99.90
2019-02-24T10:03:04.176Z,99.90
2019-02-24T10:05:31.819Z,99.90
2019-02-24T10:07:59.456Z,73.30
2019-02-24T10:10:27.096Z,75.40
2019-02-24T10:12:54.739Z,76.00
2019-02-24T10:15:22.370Z,69.80
2019-02-24T10:17:49.999Z,74.50
2019-02-24T10:20:17.658Z,77.90
2019-02-24T10:22:45.295Z,72.80
2019-02-24T10:25:12.951Z,73.70
2019-02-24T10:27:40.587Z,69.90
2019-02-24T10:30:09.799Z,67.40
2019-02-24T10:32:37.434Z,64.60
2019-02-24T10:35:05.556Z,63.60
2019-02-24T10:37:33.178Z,63.30
2019-02-24T10:40:00.823Z,62.80
2019-02-24T10:42:28.457Z,61.90
2019-02-24T10:44:56.127Z,64.90
2019-02-24T10:47:23.759Z,65.90
2019-02-24T10:49:51.421Z,67.60
2019-02-24T10:52:19.050Z,69.40
2019-02-24T10:54:46.695Z,68.80
2019-02-24T10:57:14.325Z,69.60
2019-02-24T10:59:41.985Z,67.70
2019-02-24T11:02:09.640Z,66.40
2019-02-24T11:04:37.318Z,66.60
2019-02-24T11:07:04.973Z,67.10
2019-02-24T11:09:32.606Z,64.60
2019-02-24T11:12:00.246Z,66.40
2019-02-24T11:14:27.887Z,64.10
2019-02-24T11:16:55.535Z,62.40
2019-02-24T11:19:23.162Z,60.90
2019-02-24T11:21:50.807Z,63.80
2019-02-24T11:24:18.439Z,58.50
2019-02-24T11:26:46.091Z,55.30
2019-02-24T11:31:41.106Z,52.10
2019-02-24T11:34:08.744Z,52.20
2019-02-24T11:39:04.301Z,50.30
2019-02-24T11:41:31.947Z,52.20
2019-02-24T11:44:00.499Z,45.00
2019-02-24T11:46:28.151Z,46.60
2019-02-24T11:48:55.783Z,46.20
2019-02-24T11:51:23.423Z,44.30
2019-02-24T11:53:51.059Z,41.60
2019-02-24T11:58:47.443Z,41.60
2019-02-24T12:01:15.121Z,39.80
2019-02-24T12:03:42.765Z,36.90
2019-02-24T12:06:10.397Z,36.90
2019-02-24T12:08:38.051Z,37.50
2019-02-24T12:11:05.712Z,37.00
2019-02-24T12:13:33.368Z,40.60
2019-02-24T12:16:01.012Z,40.70
2019-02-24T12:18:28.665Z,39.80
2019-02-24T12:20:56.291Z,41.00
2019-02-24T12:23:24.971Z,38.50
2019-02-24T12:25:52.621Z,40.20
2019-02-24T12:28:20.263Z,39.70
2019-02-24T12:30:47.903Z,37.50
2019-02-24T12:33:15.555Z,37.50
2019-02-24T12:35:43.191Z,36.80
2019-02-24T12:38:10.841Z,40.00
2019-02-24T12:43:05.879Z,34.50
2019-02-24T12:45:33.514Z,34.20
2019-02-24T12:48:01.166Z,35.50
2019-02-24T12:50:28.799Z,36.20
2019-02-24T12:53:05.250Z,35.50
2019-02-24T12:55:32.883Z,35.10
2019-02-24T12:58:00.534Z,37.20
2019-02-24T13:00:28.439Z,37.60
2019-02-24T13:02:57.026Z,36.60
2019-02-24T13:05:24.677Z,35.70
2019-02-24T13:07:52.319Z,36.80
2019-02-24T13:10:19.968Z,36.60
2019-02-24T13:12:47.732Z,33.90
2019-02-24T13:15:15.442Z,34.70
2019-02-24T13:17:43.098Z,34.20
2019-02-24T13:20:11.006Z,80.20
2019-02-24T13:22:39.018Z,36.70
2019-02-24T13:27:34.031Z,27.90
2019-02-24T13:30:01.676Z,27.60
2019-02-24T13:32:29.382Z,27.20
2019-02-24T13:34:57.026Z,26.00
2019-02-24T13:37:24.663Z,26.30
2019-02-24T13:39:53.933Z,24.80
2019-02-24T13:42:21.723Z,26.20
2019-02-24T13:47:16.805Z,26.90
2019-02-24T13:52:11.795Z,25.80
2019-02-24T13:54:39.450Z,26.50
2019-02-24T13:57:07.093Z,26.20
2019-02-24T13:59:34.738Z,28.70
2019-02-24T14:06:57.199Z,26.70
2019-02-24T14:11:52.207Z,27.50
2019-02-24T14:14:19.904Z,27.60
2019-02-24T14:16:47.535Z,26.40
2019-02-24T14:19:15.173Z,26.50
2019-02-24T14:21:42.847Z,26.70
2019-02-24T14:24:10.505Z,26.70
2019-02-24T14:26:38.130Z,25.70
2019-02-24T14:29:05.769Z,26.30
2019-02-24T14:31:33.411Z,26.40
2019-02-24T14:34:01.050Z,27.90
2019-02-24T14:36:28.706Z,26.90
2019-02-24T14:38:56.343Z,25.40
2019-02-24T14:41:23.995Z,25.30
2019-02-24T14:43:51.634Z,25.40
2019-02-24T14:46:19.287Z,25.80
2019-02-24T14:48:46.923Z,26.00
2019-02-24T14:51:14.576Z,24.80
2019-02-24T14:53:42.288Z,25.20
2019-02-24T14:56:09.946Z,25.50
2019-02-24T14:58:37.582Z,25.10
2019-02-24T15:01:05.231Z,25.20
2019-02-24T15:03:32.873Z,24.70
2019-02-24T15:06:00.518Z,25.60
2019-02-24T15:08:28.150Z,26.00
2019-02-24T15:10:55.795Z,26.60
2019-02-24T15:13:23.438Z,26.40
2019-02-24T15:15:51.078Z,26.20
2019-02-24T15:18:18.718Z,26.90
2019-02-24T15:23:13.734Z,26.10
2019-02-24T15:25:41.362Z,26.30
2019-02-24T15:28:09.011Z,25.70
2019-02-24T15:33:04.015Z,43.00
2019-02-24T15:35:31.656Z,26.80
2019-02-24T15:37:59.322Z,26.80
2019-02-24T15:40:26.962Z,26.90
2019-02-24T15:42:55.530Z,27.20
2019-02-24T15:45:23.161Z,28.10
2019-02-24T15:47:50.808Z,28.80
2019-02-24T15:50:18.511Z,28.40
2019-02-24T15:52:46.162Z,27.60
2019-02-24T15:55:17.082Z,27.00
2019-02-24T16:02:49.522Z,27.80
2019-02-24T16:05:17.148Z,28.00
2019-02-24T16:07:44.794Z,27.90
2019-02-24T16:10:13.965Z,28.50
2019-02-24T16:12:41.692Z,34.50
2019-02-24T16:15:11.185Z,29.50
2019-02-24T16:17:38.903Z,29.90
2019-02-24T16:20:11.194Z,32.20
2019-02-24T16:22:38.838Z,34.60
2019-02-24T16:25:07.567Z,35.70
2019-02-24T16:27:35.263Z,38.00
2019-02-24T16:30:03.275Z,39.30
2019-02-24T16:32:30.911Z,41.00
2019-02-24T16:34:58.555Z,43.50
2019-02-24T16:37:26.189Z,44.90
2019-02-24T16:39:53.840Z,46.70
2019-02-24T16:42:23.362Z,48.90
2019-02-24T16:44:51.079Z,50.20
2019-02-24T16:47:18.708Z,50.00
2019-02-24T16:49:46.347Z,56.40
2019-02-24T16:52:19.859Z,59.90
2019-02-24T16:54:52.735Z,67.90
2019-02-24T16:57:16.867Z,80.60
2019-02-24T16:59:44.513Z,81.20
2019-02-24T17:02:13.043Z,86.40
2019-02-24T17:04:40.685Z,90.90
2019-02-24T17:07:08.315Z,91.70
2019-02-24T17:09:35.950Z,93.90
2019-02-24T17:12:03.579Z,96.40
2019-02-24T17:14:31.228Z,96.90
2019-02-24T17:17:01.658Z,95.70
2019-02-24T17:19:29.106Z,94.10
2019-02-24T17:21:56.752Z,92.90
2019-02-24T17:24:26.306Z,91.90
2019-02-24T17:26:53.931Z,91.90
2019-02-24T17:29:21.575Z,93.20
2019-02-24T17:31:49.208Z,94.50
2019-02-24T17:34:16.851Z,98.80
2019-02-24T17:36:44.482Z,99.90
2019-02-24T17:39:12.114Z,99.90
2019-02-24T17:41:39.765Z,99.80
2019-02-24T17:44:07.394Z,99.30
2019-02-24T17:46:35.034Z,99.30
2019-02-24T17:49:02.662Z,99.90
2019-02-24T17:51:30.385Z,99.10
2019-02-24T17:53:58.019Z,98.90
2019-02-24T17:56:25.673Z,99.90
2019-02-24T17:58:53.298Z,99.90
2019-02-24T18:01:20.964Z,99.90
2019-02-24T18:03:48.599Z,99.90
2019-02-24T18:06:16.234Z,99.90
2019-02-24T18:08:43.869Z,99.90
2019-02-24T18:11:11.514Z,99.90
2019-02-24T18:13:39.150Z,99.90
2019-02-24T18:16:06.795Z,99.90
2019-02-24T18:18:34.422Z,99.90
2019-02-24T18:21:02.067Z,99.90
2019-02-24T18:23:29.698Z,99.90
2019-02-24T18:25:57.338Z,99.90
2019-02-24T18:28:24.966Z,99.90
2019-02-24T18:30:52.682Z,99.90
2019-02-24T18:33:20.311Z,99.90
2019-02-24T18:35:47.990Z,99.90
2019-02-24T18:38:15.614Z,99.90
2019-02-24T18:40:43.263Z,99.90
2019-02-24T18:43:10.899Z,99.90
2019-02-24T18:45:38.539Z,99.90
2019-02-24T18:48:06.166Z,99.90
2019-02-24T18:50:33.799Z,99.90
2019-02-24T18:53:01.440Z,99.90
2019-02-24T18:55:29.070Z,99.90
2019-02-24T18:57:56.711Z,99.90
2019-02-24T19:00:24.421Z,99.90
2019-02-24T19:02:52.131Z,99.90
2019-02-24T19:05:19.759Z,99.90
2019-02-24T19:07:47.403Z,99.90
2019-02-24T19:10:16.007Z,99.90
2019-02-24T19:12:43.647Z,99.90
2019-02-24T19:15:12.448Z,99.90
2019-02-24T19:17:40.090Z,99.90
2019-02-24T19:20:09.391Z,99.90
2019-02-24T19:22:37.037Z,99.90
2019-02-24T19:25:05.735Z,99.90
2019-02-24T19:27:33.384Z,99.90
2019-02-24T19:30:01.008Z,99.90
2019-02-24T19:32:29.626Z,99.90
2019-02-24T19:34:57.254Z,99.90
2019-02-24T19:37:24.894Z,99.90
2019-02-24T19:39:52.522Z,99.90
2019-02-24T19:42:20.236Z,99.90
2019-02-24T19:44:47.875Z,99.90
2019-02-24T19:47:15.523Z,99.90
2019-02-24T19:49:43.158Z,99.90
2019-02-24T19:52:10.815Z,99.90
2019-02-24T19:54:38.443Z,99.90
2019-02-24T19:57:06.083Z,99.90
2019-02-24T19:59:33.727Z,99.90
2019-02-24T20:02:01.384Z,99.90
2019-02-24T20:04:29.006Z,99.90
2019-02-24T20:06:56.694Z,99.90
2019-02-24T20:09:24.319Z,99.90
2019-02-24T20:11:51.955Z,99.90
2019-02-24T20:14:19.601Z,99.90
2019-02-24T20:16:47.234Z,99.90
2019-02-24T20:19:14.874Z,99.90
2019-02-24T20:21:42.503Z,99.90
2019-02-24T20:24:10.162Z,99.90
2019-02-24T20:26:37.791Z,99.90
2019-02-24T20:29:05.434Z,99.90
2019-02-24T20:31:33.070Z,99.90
2019-02-24T20:34:00.714Z,99.90
2019-02-24T20:36:28.356Z,99.90
2019-02-24T20:38:56.003Z,99.90
2019-02-24T20:41:23.634Z,99.90
2019-02-24T20:43:51.279Z,99.90
2019-02-24T20:46:18.915Z,99.90
2019-02-24T20:48:46.562Z,99.90
2019-02-24T20:51:14.204Z,99.90
2019-02-24T20:53:41.839Z,99.90
2019-02-24T20:56:09.468Z,99.90
2019-02-24T20:58:37.112Z,99.90
2019-02-24T21:01:06.380Z,99.90
2019-02-24T21:03:34.023Z,99.90
2019-02-24T21:06:01.652Z,99.90
2019-02-24T21:08:29.341Z,99.90
2019-02-24T21:10:56.972Z,99.90
2019-02-24T21:13:24.604Z,99.90
2019-02-24T21:15:52.238Z,99.90
2019-02-24T21:18:19.895Z,99.90
2019-02-24T21:20:47.548Z,99.90
2019-02-24T21:23:15.183Z,99.90
2019-02-24T21:25:42.842Z,99.90
2019-02-24T21:28:10.551Z,99.90
2019-02-24T21:30:38.191Z,99.90
2019-02-24T21:33:05.835Z,99.90
2019-02-24T21:35:33.484Z,99.90
2019-02-24T21:38:01.115Z,99.90
2019-02-24T21:40:28.762Z,99.90
2019-02-24T21:42:56.399Z,99.90
2019-02-24T21:45:24.619Z,99.90
2019-02-24T21:47:52.258Z,99.90
2019-02-24T21:50:20.087Z,99.90
2019-02-24T21:52:49.706Z,99.90
2019-02-24T21:55:17.356Z,99.90
2019-02-24T21:57:44.985Z,99.90
2019-02-24T22:00:13.987Z,99.90
2019-02-24T22:02:41.629Z,99.90
2019-02-24T22:05:10.139Z,99.90
2019-02-24T22:07:37.779Z,99.90
2019-02-24T22:10:06.778Z,99.90
2019-02-24T22:12:43.490Z,99.90
2019-02-24T22:15:14.867Z,99.90
2019-02-24T22:17:42.525Z,99.90
2019-02-24T22:20:10.226Z,99.90
2019-02-24T22:22:37.873Z,99.90
2019-02-24T22:25:06.279Z,99.90
2019-02-24T22:27:33.926Z,99.90
2019-02-24T22:30:01.563Z,99.90
2019-02-24T22:32:29.204Z,99.90
2019-02-24T22:34:56.840Z,99.90
2019-02-24T22:37:24.486Z,99.90
2019-02-24T22:39:52.123Z,99.90
2019-02-24T22:42:19.766Z,99.90
2019-02-24T22:44:47.411Z,99.90
2019-02-24T22:47:15.051Z,99.90
2019-02-24T22:49:42.682Z,99.90
2019-02-24T22:52:10.330Z,99.90
2019-02-24T22:54:37.963Z,99.90
2019-02-24T22:57:05.607Z,99.90
2019-02-24T22:59:33.247Z,99.90
2019-02-24T23:02:00.965Z,99.90
2019-02-24T23:04:28.595Z,99.90
2019-02-24T23:06:56.251Z,99.90
2019-02-24T23:09:23.962Z,99.90
2019-02-24T23:11:51.590Z,99.90
2019-02-24T23:14:19.255Z,99.90
2019-02-24T23:16:46.874Z,99.90
2019-02-24T23:19:14.518Z,99.90
2019-02-24T23:21:42.152Z,99.90
2019-02-24T23:24:10.694Z,99.90
2019-02-24T23:26:38.353Z,99.90
2019-02-24T23:29:06.046Z,99.90
2019-02-24T23:31:33.678Z,99.90
2019-02-24T23:34:01.327Z,99.90
2019-02-24T23:36:28.963Z,99.90
2019-02-24T23:38:56.606Z,99.90
2019-02-24T23:41:24.303Z,99.90
2019-02-24T23:43:51.970Z,99.90
2019-02-24T23:46:19.614Z,99.90
2019-02-24T23:48:47.256Z,99.90
2019-02-24T23:51:14.886Z,99.90
2019-02-24T23:53:42.535Z,99.90
2019-02-24T23:56:10.171Z,99.90
2019-02-24T23:58:37.839Z,99.90
